Terminal Aerodrome Forecast
Issued by NWS

Current Version | Previous Version | Graphics & Text | Print | Product List | Glossary On
Versions: 1 2 3 4 5 6 7 8 9 10 11 12 13 14 15 16 17 18
000
FTUS41 KPBZ 302234 AAB
TAFHLG
TAF AMD
KHLG 302234Z 3023/3118 22005KT P6SM SCT045 BKN100
     FM310900 VRB02KT 2SM BR SCT250
     FM311400 23005KT P6SM BKN250=

USA.gov is the U.S. government's official web portal to all federal, state and local government web resources and services.